Time;durP1;ratioP1;P1;durP2;ratioP2;P2;SDS_P1;SDS_P2;PMS_P1;PMS_P2;Temp;Humidity;BMP_temperature;BMP_pressure;BME280_temperature;BME280_humidity;BME280_pressure;Samples;Min_cycle;Max_cycle;Signal;HPM_P1;HPM_P2
2024/01/08 00:00:09;;;;;;;5.85;4.30;;;-0.40;99.50;;;;;;5054940;28;20025;-84
2024/01/08 00:02:35;;;;;;;5.47;4.30;;;-0.40;99.40;;;;;;5041698;28;20028;-83
2024/01/08 00:05:00;;;;;;;6.85;4.40;;;-0.40;99.40;;;;;;5074246;28;20120;-84
2024/01/08 00:07:26;;;;;;;6.40;4.40;;;-0.40;99.40;;;;;;5037364;28;20036;-83
2024/01/08 00:09:52;;;;;;;6.35;4.28;;;-0.40;99.40;;;;;;5021360;28;20040;-82
2024/01/08 00:12:17;;;;;;;5.57;3.88;;;-0.40;99.50;;;;;;5070734;28;20028;-84
2024/01/08 00:14:43;;;;;;;7.95;4.88;;;-0.30;99.60;;;;;;5057639;28;20028;-84
2024/01/08 00:17:09;;;;;;;5.63;4.40;;;-0.20;99.50;;;;;;5057116;28;20491;-84
2024/01/08 00:19:34;;;;;;;5.45;4.35;;;-0.30;99.40;;;;;;5031907;28;20025;-84
2024/01/08 00:22:02;;;;;;;7.30;4.85;;;-0.20;99.50;;;;;;5050533;28;20037;-84
2024/01/08 00:24:28;;;;;;;5.30;4.30;;;-0.20;99.30;;;;;;5059280;28;20056;-83
2024/01/08 00:26:54;;;;;;;5.47;4.20;;;-0.20;99.10;;;;;;5040413;28;20468;-83
2024/01/08 00:29:20;;;;;;;6.32;4.68;;;-0.20;99.00;;;;;;5056892;28;20120;-83
2024/01/08 00:31:46;;;;;;;4.82;4.10;;;-0.20;99.00;;;;;;5051701;28;20059;-84
2024/01/08 00:34:14;;;;;;;8.50;4.85;;;-0.30;99.00;;;;;;5060813;28;20083;-83
2024/01/08 00:36:52;;;;;;;4.95;4.38;;;-0.30;99.00;;;;;;5069987;28;20033;-84
2024/01/08 00:39:18;;;;;;;5.22;4.22;;;-0.30;99.10;;;;;;5054007;28;20041;-83
2024/01/08 00:41:43;;;;;;;5.10;4.28;;;-0.30;99.00;;;;;;5066176;28;20025;-83
2024/01/08 00:44:09;;;;;;;6.32;4.32;;;-0.40;98.90;;;;;;5073244;28;20098;-83
2024/01/08 00:46:34;;;;;;;6.10;4.38;;;-0.50;99.10;;;;;;5056703;28;20035;-83
2024/01/08 00:49:00;;;;;;;5.68;4.38;;;-0.50;99.10;;;;;;5073291;28;20114;-83
2024/01/08 00:51:26;;;;;;;5.53;4.13;;;-0.40;99.20;;;;;;5055938;28;20387;-83
2024/01/08 00:53:52;;;;;;;6.85;4.75;;;-0.40;99.10;;;;;;5037834;28;20041;-83
2024/01/08 00:56:18;;;;;;;5.57;4.47;;;-0.60;99.00;;;;;;5072875;28;20024;-83
2024/01/08 00:58:44;;;;;;;4.82;4.00;;;-0.60;99.10;;;;;;5074558;28;20119;-83
2024/01/08 01:01:11;;;;;;;4.32;3.85;;;-0.60;99.00;;;;;;5058200;28;20028;-83
2024/01/08 01:03:37;;;;;;;5.20;4.25;;;-0.60;99.20;;;;;;5078787;28;20020;-83
2024/01/08 01:06:03;;;;;;;5.03;3.78;;;-0.60;99.00;;;;;;5095892;28;20035;-80
2024/01/08 01:08:29;;;;;;;7.05;4.47;;;-0.60;99.00;;;;;;5089607;28;20024;-83
2024/01/08 01:10:54;;;;;;;6.22;4.47;;;-0.70;99.10;;;;;;5052520;28;20489;-83
2024/01/08 01:13:20;;;;;;;6.53;4.65;;;-0.70;99.00;;;;;;5056522;28;20032;-83
2024/01/08 01:15:46;;;;;;;5.05;3.72;;;-0.80;99.10;;;;;;5074081;28;20097;-83
2024/01/08 01:18:11;;;;;;;6.03;4.40;;;-0.80;99.20;;;;;;5039622;28;20035;-82
2024/01/08 01:20:37;;;;;;;5.65;4.15;;;-0.90;99.20;;;;;;5056284;28;20024;-83
2024/01/08 01:23:03;;;;;;;6.32;4.13;;;-0.90;99.20;;;;;;5070296;28;20040;-82
2024/01/08 01:25:28;;;;;;;6.93;4.63;;;-0.90;99.20;;;;;;5055529;28;20032;-83
2024/01/08 01:27:54;;;;;;;6.53;4.70;;;-0.90;99.20;;;;;;5042658;28;20029;-83
2024/01/08 01:30:20;;;;;;;6.38;3.92;;;-0.90;99.30;;;;;;5073614;28;20025;-83
2024/01/08 01:32:45;;;;;;;5.07;4.18;;;-0.90;99.30;;;;;;5054155;28;20388;-83
2024/01/08 01:35:11;;;;;;;5.88;3.75;;;-0.90;99.30;;;;;;5035627;28;20489;-83
2024/01/08 01:37:37;;;;;;;8.20;4.90;;;-0.90;99.40;;;;;;5022253;28;20472;-83
2024/01/08 01:40:06;;;;;;;4.90;4.20;;;-0.90;99.40;;;;;;5072376;28;20027;-83
2024/01/08 01:42:31;;;;;;;6.72;4.13;;;-0.90;99.30;;;;;;5071520;28;20508;-83
2024/01/08 01:44:57;;;;;;;5.70;3.95;;;-0.90;99.40;;;;;;5053925;28;20060;-83
2024/01/08 01:47:23;;;;;;;5.65;3.80;;;-1.00;99.40;;;;;;5072924;28;20047;-83
2024/01/08 01:49:50;;;;;;;5.72;4.20;;;-0.90;99.40;;;;;;5062801;28;20549;-83
2024/01/08 01:52:16;;;;;;;9.27;5.25;;;-0.90;99.40;;;;;;5055699;28;20161;-83
2024/01/08 01:54:43;;;;;;;6.38;4.55;;;-1.00;99.30;;;;;;5072388;28;20380;-83
2024/01/08 01:57:08;;;;;;;5.50;4.35;;;-1.00;99.50;;;;;;5055554;28;20404;-83
2024/01/08 01:59:34;;;;;;;6.68;4.60;;;-1.00;99.50;;;;;;5072038;28;20028;-83
2024/01/08 02:02:01;;;;;;;7.05;5.00;;;-1.10;99.50;;;;;;5053428;28;20021;-83
2024/01/08 02:04:29;;;;;;;8.00;5.13;;;-1.10;99.60;;;;;;5019022;28;20055;-83
2024/01/08 02:06:56;;;;;;;8.88;4.93;;;-1.10;99.60;;;;;;5053935;28;20480;-83
2024/01/08 02:09:22;;;;;;;7.40;4.63;;;-1.10;99.60;;;;;;5055540;28;20037;-83
2024/01/08 02:11:48;;;;;;;6.57;4.38;;;-1.10;99.60;;;;;;5072582;28;20021;-83
2024/01/08 02:14:16;;;;;;;7.75;5.20;;;-1.10;99.60;;;;;;5056072;28;20035;-83
2024/01/08 02:16:42;;;;;;;8.15;5.28;;;-1.10;99.70;;;;;;5072773;28;20032;-83
2024/01/08 02:19:09;;;;;;;8.35;5.25;;;-1.10;99.70;;;;;;5089896;28;20025;-84
2024/01/08 02:21:34;;;;;;;7.18;5.40;;;-1.10;99.60;;;;;;5073501;28;20005;-84
2024/01/08 02:24:00;;;;;;;7.50;5.20;;;-1.20;99.80;;;;;;5042344;28;20511;-83
2024/01/08 02:26:26;;;;;;;8.27;4.68;;;-1.30;99.50;;;;;;5071214;28;20032;-83
2024/01/08 02:28:52;;;;;;;8.35;4.80;;;-1.30;99.70;;;;;;5072093;28;20025;-83
2024/01/08 02:31:20;;;;;;;8.52;5.05;;;-1.30;99.80;;;;;;5054264;28;20086;-83
2024/01/08 02:33:46;;;;;;;7.38;4.45;;;-1.40;99.80;;;;;;5058003;28;20023;-83
2024/01/08 02:36:11;;;;;;;8.88;4.72;;;-1.30;99.90;;;;;;5072770;28;20033;-83
2024/01/08 02:38:37;;;;;;;7.07;4.70;;;-1.30;99.90;;;;;;5045565;28;20021;-83
2024/01/08 02:41:03;;;;;;;6.07;4.38;;;-1.30;99.90;;;;;;5058896;28;20024;-83
2024/01/08 02:43:28;;;;;;;8.55;5.38;;;-1.30;99.90;;;;;;5075132;28;20029;-83
2024/01/08 02:45:54;;;;;;;6.88;4.43;;;-1.30;99.90;;;;;;5038373;28;20090;-83
2024/01/08 02:48:20;;;;;;;6.72;4.60;;;-1.30;99.90;;;;;;5059070;28;20373;-84
2024/01/08 02:50:45;;;;;;;9.13;5.30;;;-1.20;99.90;;;;;;5022200;28;20353;-83
2024/01/08 02:53:11;;;;;;;8.32;5.07;;;-1.30;99.80;;;;;;5039037;28;20527;-83
2024/01/08 02:55:36;;;;;;;9.35;4.85;;;-1.40;99.80;;;;;;5046607;28;20029;-83
2024/01/08 02:58:03;;;;;;;7.80;5.18;;;-1.40;99.80;;;;;;5042451;28;20021;-84
2024/01/08 03:00:29;;;;;;;8.00;4.60;;;-1.40;99.90;;;;;;5058168;28;20115;-84
2024/01/08 03:02:55;;;;;;;7.70;4.65;;;-1.40;99.90;;;;;;5076224;28;20127;-83
2024/01/08 03:05:20;;;;;;;7.60;4.68;;;-1.40;99.90;;;;;;5076561;28;20060;-83
2024/01/08 03:07:46;;;;;;;7.70;4.88;;;-1.30;99.90;;;;;;5071684;28;20029;-83
2024/01/08 03:10:12;;;;;;;7.32;4.85;;;-1.40;99.90;;;;;;5045056;28;20020;-83
2024/01/08 03:12:37;;;;;;;6.90;4.20;;;-1.40;99.90;;;;;;5075571;28;20034;-83
2024/01/08 03:15:03;;;;;;;6.43;4.88;;;-1.30;99.90;;;;;;5058856;28;20380;-83
2024/01/08 03:17:29;;;;;;;5.88;4.13;;;-1.30;99.90;;;;;;5057976;28;20170;-84
2024/01/08 03:19:55;;;;;;;6.60;4.72;;;-1.30;99.90;;;;;;5074856;28;20480;-84
2024/01/08 03:22:21;;;;;;;7.00;5.15;;;-1.20;99.90;;;;;;5041944;28;20463;-83
2024/01/08 03:24:47;;;;;;;7.78;5.03;;;-1.20;99.90;;;;;;5040678;28;20052;-83
2024/01/08 03:27:12;;;;;;;8.27;5.03;;;-1.30;99.90;;;;;;5056564;28;20033;-84
2024/01/08 03:29:38;;;;;;;8.65;4.78;;;-1.20;99.90;;;;;;5062051;28;20009;-83
2024/01/08 03:32:04;;;;;;;7.28;4.60;;;-1.20;99.90;;;;;;5064012;28;20010;-84
2024/01/08 03:34:30;;;;;;;7.38;4.32;;;-1.20;99.90;;;;;;5051419;28;20041;-83
2024/01/08 03:36:55;;;;;;;6.03;4.20;;;-1.10;99.90;;;;;;5055600;28;20483;-83
2024/01/08 03:39:21;;;;;;;6.57;4.35;;;-1.10;99.90;;;;;;5044970;28;20423;-83
2024/01/08 03:41:47;;;;;;;6.75;4.47;;;-1.20;99.90;;;;;;5074857;28;20127;-83
2024/01/08 03:44:14;;;;;;;6.93;4.85;;;-1.10;99.90;;;;;;5050260;28;20065;-84
2024/01/08 03:46:40;;;;;;;5.95;4.15;;;-1.20;99.90;;;;;;5038210;28;20025;-82
2024/01/08 03:49:06;;;;;;;6.50;4.72;;;-1.20;99.90;;;;;;5040773;28;20032;-83
2024/01/08 03:51:33;;;;;;;7.03;4.53;;;-1.10;99.90;;;;;;5055470;28;20021;-83
2024/01/08 03:53:59;;;;;;;6.10;4.40;;;-1.10;99.90;;;;;;5074578;28;20060;-84
2024/01/08 03:56:25;;;;;;;6.25;4.43;;;-1.00;99.90;;;;;;5074468;28;20520;-83
2024/01/08 03:58:50;;;;;;;6.30;4.13;;;-1.00;99.90;;;;;;5054192;28;20112;-83
2024/01/08 04:01:16;;;;;;;8.30;4.07;;;-1.00;99.90;;;;;;5056584;28;20033;-83
2024/01/08 04:03:42;;;;;;;7.60;4.15;;;-1.00;99.90;;;;;;5064401;28;20483;-84
2024/01/08 04:06:08;;;;;;;8.75;5.03;;;-0.90;99.90;;;;;;5057514;28;20036;-83
2024/01/08 04:08:33;;;;;;;7.00;5.05;;;-0.90;99.90;;;;;;5074180;28;20025;-83
2024/01/08 04:10:59;;;;;;;9.85;5.40;;;-0.90;99.90;;;;;;5058015;28;20031;-84
2024/01/08 04:13:24;;;;;;;8.20;5.28;;;-0.90;99.90;;;;;;5072236;28;20086;-83
2024/01/08 04:15:50;;;;;;;7.72;4.78;;;-0.90;99.90;;;;;;5075521;28;20032;-83
2024/01/08 04:18:16;;;;;;;8.38;5.22;;;-0.90;99.90;;;;;;5040649;28;20082;-83
2024/01/08 04:20:42;;;;;;;9.13;5.70;;;-0.90;99.90;;;;;;5057572;28;20032;-83
2024/01/08 04:23:08;;;;;;;10.02;5.68;;;-0.90;99.90;;;;;;5057335;28;20094;-83
2024/01/08 04:25:33;;;;;;;7.95;5.78;;;-0.90;99.90;;;;;;5075189;28;20036;-83
2024/01/08 04:27:59;;;;;;;7.60;5.40;;;-0.90;99.90;;;;;;5062772;28;20387;-84
2024/01/08 04:30:25;;;;;;;8.90;5.40;;;-1.00;99.90;;;;;;5074010;28;20029;-82
2024/01/08 04:32:50;;;;;;;9.65;5.97;;;-0.90;99.90;;;;;;5040833;28;20036;-83
2024/01/08 04:35:16;;;;;;;8.07;5.38;;;-0.90;99.90;;;;;;5074463;28;20115;-83
2024/01/08 04:37:41;;;;;;;7.82;5.45;;;-0.80;99.90;;;;;;5055813;28;20033;-83
2024/01/08 04:40:08;;;;;;;10.75;5.97;;;-0.70;99.90;;;;;;5077916;28;20009;-82
2024/01/08 04:42:34;;;;;;;8.07;5.32;;;-0.70;99.90;;;;;;5081226;28;20013;-82
2024/01/08 04:44:59;;;;;;;9.13;5.53;;;-0.70;99.90;;;;;;5080536;28;20048;-81
2024/01/08 04:47:26;;;;;;;8.68;5.82;;;-0.70;99.90;;;;;;5080950;28;20101;-83
2024/01/08 04:49:52;;;;;;;8.55;5.57;;;-0.60;99.90;;;;;;5066429;28;20036;-83
2024/01/08 04:52:17;;;;;;;9.23;5.60;;;-0.50;99.90;;;;;;5074502;28;20530;-83
2024/01/08 04:54:43;;;;;;;8.82;6.10;;;-0.60;99.90;;;;;;5073497;28;20017;-83
2024/01/08 04:57:12;;;;;;;10.23;6.35;;;-0.60;99.90;;;;;;5073472;28;20059;-83
2024/01/08 04:59:41;;;;;;;11.77;6.20;;;-0.60;99.90;;;;;;5055711;28;20078;-83
2024/01/08 05:02:08;;;;;;;7.18;4.90;;;-0.50;99.90;;;;;;5073277;28;20116;-83
2024/01/08 05:04:34;;;;;;;10.05;6.28;;;-0.50;99.90;;;;;;5060783;28;20039;-83
2024/01/08 05:06:59;;;;;;;7.78;5.82;;;-0.50;99.90;;;;;;5076544;28;20029;-85
2024/01/08 05:09:25;;;;;;;9.43;5.78;;;-0.50;99.90;;;;;;5094226;28;20640;-83
2024/01/08 05:11:50;;;;;;;10.50;5.80;;;-0.40;99.90;;;;;;5075947;28;20055;-83
2024/01/08 05:14:16;;;;;;;8.73;6.13;;;-0.50;99.90;;;;;;5092020;28;20136;-83
2024/01/08 05:16:42;;;;;;;8.90;6.25;;;-0.60;99.90;;;;;;5087178;28;20035;-83
2024/01/08 05:19:07;;;;;;;11.32;7.00;;;-0.60;99.90;;;;;;5080338;28;20016;-84
2024/01/08 05:21:33;;;;;;;11.90;6.38;;;-0.50;99.90;;;;;;5079633;28;20029;-83
2024/01/08 05:23:59;;;;;;;10.20;7.07;;;-0.60;99.90;;;;;;5079128;28;20025;-82
2024/01/08 05:26:25;;;;;;;10.35;6.78;;;-0.60;99.90;;;;;;5079807;28;20039;-84
2024/01/08 05:28:52;;;;;;;9.90;6.78;;;-0.60;99.90;;;;;;5041194;28;20028;-88
2024/01/08 05:31:18;;;;;;;8.00;5.72;;;-0.60;99.90;;;;;;5057321;28;20439;-86
2024/01/08 05:33:43;;;;;;;11.82;7.07;;;-0.60;99.90;;;;;;5056973;28;20066;-85
2024/01/08 05:36:09;;;;;;;8.23;5.50;;;-0.50;99.90;;;;;;5040644;28;20423;-87
2024/01/08 05:38:36;;;;;;;11.15;6.38;;;-0.40;99.90;;;;;;5049683;28;20514;-84
2024/01/08 05:41:01;;;;;;;10.82;5.80;;;-0.40;99.90;;;;;;5063689;28;20032;-85
2024/01/08 05:43:27;;;;;;;8.88;5.93;;;-0.40;99.90;;;;;;5066831;28;20489;-84
2024/01/08 05:45:53;;;;;;;9.82;6.15;;;-0.30;99.90;;;;;;5041764;28;20440;-86
2024/01/08 05:48:19;;;;;;;10.75;6.75;;;-0.30;99.90;;;;;;5056287;28;20032;-84
2024/01/08 05:50:46;;;;;;;10.93;6.15;;;-0.20;99.90;;;;;;5054185;28;20013;-84
2024/01/08 05:53:13;;;;;;;9.73;6.35;;;-0.20;99.90;;;;;;5096935;28;20080;-85
2024/01/08 05:55:38;;;;;;;9.55;6.70;;;-0.20;99.90;;;;;;5075133;28;20435;-82
2024/01/08 05:58:04;;;;;;;11.82;6.43;;;-0.20;99.90;;;;;;5084702;28;20029;-86
2024/01/08 06:00:30;;;;;;;10.00;6.63;;;-0.20;99.90;;;;;;5047635;28;20115;-86
2024/01/08 06:02:56;;;;;;;11.35;7.20;;;-0.20;99.90;;;;;;5069690;28;20137;-85
2024/01/08 06:05:22;;;;;;;12.48;7.05;;;-0.20;99.90;;;;;;5073403;28;20033;-84
2024/01/08 06:07:48;;;;;;;13.13;6.85;;;-0.20;99.90;;;;;;5056115;28;20043;-84
2024/01/08 06:10:15;;;;;;;10.57;6.38;;;-0.20;99.90;;;;;;5072760;28;20017;-85
2024/01/08 06:12:40;;;;;;;11.48;7.32;;;-0.30;99.90;;;;;;5072030;28;20051;-84
2024/01/08 06:15:06;;;;;;;10.00;7.07;;;-0.40;99.90;;;;;;5055624;28;20029;-85
2024/01/08 06:17:32;;;;;;;8.45;6.10;;;-0.40;99.90;;;;;;5039154;28;20039;-84
2024/01/08 06:19:57;;;;;;;9.35;6.65;;;-0.40;99.90;;;;;;5055364;28;20059;-83
2024/01/08 06:22:23;;;;;;;9.90;6.10;;;-0.30;99.90;;;;;;5055051;28;20078;-84
2024/01/08 06:24:48;;;;;;;10.02;6.25;;;-0.30;99.90;;;;;;5072507;28;20028;-84
2024/01/08 06:27:14;;;;;;;11.50;7.22;;;-0.30;99.90;;;;;;5038664;28;20032;-84
2024/01/08 06:29:40;;;;;;;9.73;6.75;;;-0.30;99.90;;;;;;5054939;28;20039;-82
2024/01/08 06:32:06;;;;;;;10.75;7.40;;;-0.30;99.90;;;;;;5038984;28;20029;-83
2024/01/08 06:34:31;;;;;;;10.50;6.70;;;-0.20;99.90;;;;;;5055208;28;20036;-83
2024/01/08 06:36:58;;;;;;;10.15;5.90;;;-0.20;99.90;;;;;;5051446;28;20021;-83
2024/01/08 06:39:24;;;;;;;9.75;6.28;;;-0.20;99.90;;;;;;5053661;28;20032;-83
2024/01/08 06:41:50;;;;;;;9.48;5.53;;;-0.20;99.90;;;;;;5045952;28;20036;-83
2024/01/08 06:44:15;;;;;;;9.90;6.53;;;-0.20;99.90;;;;;;5051373;28;20052;-82
2024/01/08 06:46:41;;;;;;;9.20;6.47;;;-0.10;99.90;;;;;;5052097;28;20574;-85
2024/01/08 06:49:08;;;;;;;10.25;6.40;;;-0.20;99.90;;;;;;5054789;28;20044;-82
2024/01/08 06:51:43;;;;;;;9.80;6.20;;;-0.10;99.90;;;;;;5050503;28;20110;-84
2024/01/08 06:54:09;;;;;;;8.73;5.55;;;-0.10;99.90;;;;;;5053211;28;20037;-82
2024/01/08 06:56:34;;;;;;;9.55;6.30;;;-0.10;99.90;;;;;;5061030;28;20384;-86
2024/01/08 06:59:01;;;;;;;10.27;6.47;;;-0.10;99.90;;;;;;5047423;28;20115;-84
2024/01/08 07:01:28;;;;;;;9.10;6.13;;;-0.10;99.90;;;;;;5054421;28;20052;-83
2024/01/08 07:03:53;;;;;;;8.32;5.75;;;-0.10;99.90;;;;;;5055542;28;20047;-84
2024/01/08 07:06:19;;;;;;;10.00;6.00;;;-0.10;99.90;;;;;;5063524;28;20017;-84
2024/01/08 07:08:54;;;;;;;10.15;6.47;;;-0.10;99.90;;;;;;5064089;28;20028;-82
2024/01/08 07:11:24;;;;;;;6.80;5.07;;;-0.20;99.90;;;;;;5074161;28;20052;-83
2024/01/08 07:13:50;;;;;;;8.45;5.38;;;-0.20;99.90;;;;;;5062620;28;20024;-83
2024/01/08 07:16:17;;;;;;;9.90;6.60;;;-0.20;99.90;;;;;;5055943;28;20024;-83
2024/01/08 07:18:43;;;;;;;9.10;5.45;;;-0.10;99.90;;;;;;5061438;28;20037;-83
2024/01/08 07:21:11;;;;;;;10.25;5.80;;;-0.20;99.90;;;;;;5052660;28;20021;-84
2024/01/08 07:23:37;;;;;;;10.00;5.63;;;-0.20;99.90;;;;;;5052596;28;20131;-85
2024/01/08 07:26:03;;;;;;;10.10;5.68;;;-0.30;99.90;;;;;;5054363;28;20120;-85
2024/01/08 07:28:29;;;;;;;7.47;5.20;;;-0.20;99.90;;;;;;5056480;28;20029;-85
2024/01/08 07:30:55;;;;;;;6.43;5.00;;;-0.20;99.90;;;;;;5070220;28;20121;-82
2024/01/08 07:33:23;;;;;;;7.65;5.25;;;-0.10;99.90;;;;;;5054932;28;20028;-84
2024/01/08 07:35:49;;;;;;;8.85;5.30;;;-0.10;99.90;;;;;;5059007;28;20033;-83
2024/01/08 07:38:15;;;;;;;8.77;5.40;;;-0.10;99.90;;;;;;5037810;28;20032;-83
2024/01/08 07:40:40;;;;;;;7.72;5.22;;;-0.10;99.90;;;;;;5058969;28;20120;-83
2024/01/08 07:43:06;;;;;;;10.73;5.72;;;-0.10;99.90;;;;;;5052935;28;20109;-86
2024/01/08 07:45:33;;;;;;;6.80;4.55;;;-0.10;99.90;;;;;;5053737;28;20049;-83
2024/01/08 07:47:59;;;;;;;8.43;5.57;;;-0.10;99.90;;;;;;5057645;28;20480;-83
2024/01/08 07:50:24;;;;;;;8.57;5.50;;;-0.10;99.90;;;;;;5069746;28;20372;-83
2024/01/08 07:52:51;;;;;;;8.98;5.15;;;-0.10;99.90;;;;;;5067299;28;20033;-82
2024/01/08 07:55:17;;;;;;;8.60;5.13;;;-0.10;99.90;;;;;;5055778;28;20029;-84
2024/01/08 07:57:43;;;;;;;6.80;4.97;;;-0.10;99.90;;;;;;5066513;28;20052;-84
2024/01/08 08:00:11;;;;;;;7.32;4.80;;;-0.10;99.90;;;;;;5063539;28;20056;-84
2024/01/08 08:02:38;;;;;;;9.48;5.35;;;0.00;99.90;;;;;;5074145;28;20028;-84
2024/01/08 08:05:04;;;;;;;8.13;5.03;;;0.00;99.90;;;;;;5053513;28;20377;-84
2024/01/08 08:07:30;;;;;;;9.20;4.97;;;0.00;99.90;;;;;;5066436;28;20055;-84
2024/01/08 08:09:56;;;;;;;7.55;5.40;;;-0.10;99.90;;;;;;5073831;28;20027;-84
2024/01/08 08:12:21;;;;;;;9.18;5.25;;;-0.10;99.90;;;;;;5074001;28;20025;-84
2024/01/08 08:14:48;;;;;;;6.38;4.80;;;-0.10;99.90;;;;;;5053626;28;20032;-84
2024/01/08 08:17:14;;;;;;;7.00;5.30;;;0.00;99.90;;;;;;5061181;28;20032;-84
2024/01/08 08:19:44;;;;;;;13.52;5.80;;;0.00;99.90;;;;;;5098012;28;20392;-83
2024/01/08 08:22:14;;;;;;;7.78;5.20;;;0.10;99.90;;;;;;5094565;28;20027;-83
2024/01/08 08:24:40;;;;;;;10.00;5.70;;;0.10;99.90;;;;;;5067580;28;20037;-84
2024/01/08 08:27:10;;;;;;;8.93;5.78;;;0.10;99.90;;;;;;5075438;28;20016;-84
2024/01/08 08:29:43;;;;;;;8.75;5.68;;;0.10;99.90;;;;;;5074465;28;20082;-85
2024/01/08 08:32:09;;;;;;;9.63;5.82;;;0.10;99.90;;;;;;5073648;28;20028;-84
2024/01/08 08:34:36;;;;;;;7.70;5.55;;;0.10;99.90;;;;;;5057046;28;20055;-84
2024/01/08 08:37:02;;;;;;;7.88;5.53;;;0.00;99.90;;;;;;5066321;28;20105;-85
2024/01/08 08:39:27;;;;;;;7.38;5.20;;;0.00;99.90;;;;;;5057391;28;20461;-84
2024/01/08 08:41:55;;;;;;;7.50;5.60;;;0.00;99.90;;;;;;5075346;28;20032;-84
2024/01/08 08:44:21;;;;;;;7.63;5.60;;;-0.10;99.90;;;;;;5056334;28;20057;-85
2024/01/08 08:46:46;;;;;;;8.93;5.40;;;-0.10;99.90;;;;;;5056732;28;20029;-84
2024/01/08 08:49:13;;;;;;;7.07;5.00;;;-0.10;99.90;;;;;;5056412;28;20098;-84
2024/01/08 08:51:40;;;;;;;8.35;5.82;;;0.00;99.90;;;;;;5056290;28;20029;-85
2024/01/08 08:54:06;;;;;;;10.63;5.93;;;0.00;99.90;;;;;;5060359;28;20025;-84
2024/01/08 08:56:32;;;;;;;8.60;5.68;;;0.00;99.90;;;;;;5058071;28;20036;-84
2024/01/08 08:58:59;;;;;;;9.35;5.95;;;0.10;99.90;;;;;;5040158;28;20040;-82
2024/01/08 09:01:25;;;;;;;7.78;5.25;;;0.00;99.90;;;;;;5073078;28;20027;-84
2024/01/08 09:03:52;;;;;;;8.10;5.93;;;0.10;99.90;;;;;;5056100;28;20028;-85
2024/01/08 09:06:20;;;;;;;9.70;6.50;;;0.00;99.90;;;;;;5056098;28;20119;-84
2024/01/08 09:08:47;;;;;;;8.40;5.90;;;0.00;99.90;;;;;;5038992;28;20473;-85
2024/01/08 09:11:13;;;;;;;7.68;5.50;;;-0.10;99.90;;;;;;5038752;28;20162;-84
2024/01/08 09:13:38;;;;;;;7.90;5.90;;;-0.10;99.90;;;;;;5053297;28;20540;-83
2024/01/08 09:16:04;;;;;;;7.50;5.88;;;-0.10;99.90;;;;;;5055528;28;20119;-85
2024/01/08 09:18:30;;;;;;;8.85;6.63;;;-0.10;99.90;;;;;;5076785;28;20143;-84
2024/01/08 09:20:56;;;;;;;9.02;6.57;;;-0.10;99.90;;;;;;5059406;28;20460;-84
2024/01/08 09:23:21;;;;;;;9.32;6.32;;;-0.10;99.90;;;;;;5057369;28;20048;-83
2024/01/08 09:25:47;;;;;;;9.07;6.22;;;-0.10;99.90;;;;;;5070716;28;20036;-83
2024/01/08 09:28:13;;;;;;;10.98;6.00;;;-0.20;99.90;;;;;;5053313;28;20053;-83
2024/01/08 09:30:38;;;;;;;9.13;5.95;;;-0.20;99.90;;;;;;5025789;28;20015;-83
2024/01/08 09:33:04;;;;;;;9.73;5.88;;;-0.10;99.90;;;;;;5044548;28;20032;-81
2024/01/08 09:35:33;;;;;;;7.30;5.70;;;-0.10;99.90;;;;;;5079911;28;20065;-82
2024/01/08 09:37:58;;;;;;;7.90;5.90;;;0.00;99.90;;;;;;5061937;28;20020;-83
2024/01/08 09:40:24;;;;;;;9.02;5.85;;;0.00;99.90;;;;;;5056863;28;20036;-83
2024/01/08 09:42:53;;;;;;;7.60;5.28;;;0.10;99.90;;;;;;5052832;28;20082;-85
2024/01/08 09:45:23;;;;;;;9.55;5.70;;;0.10;99.90;;;;;;5071141;28;20032;-86
2024/01/08 09:47:49;;;;;;;9.25;5.47;;;0.20;99.90;;;;;;5038844;28;20087;-85
2024/01/08 09:50:16;;;;;;;10.05;6.25;;;0.20;99.90;;;;;;5064350;28;20082;-85
2024/01/08 09:52:43;;;;;;;7.60;5.35;;;0.10;99.90;;;;;;5052459;28;20032;-83
2024/01/08 09:55:10;;;;;;;10.52;4.80;;;0.10;99.90;;;;;;5035580;28;20025;-84
2024/01/08 09:57:36;;;;;;;7.68;5.63;;;0.20;99.90;;;;;;5060325;28;20111;-84
2024/01/08 10:00:03;;;;;;;7.50;5.47;;;0.20;99.90;;;;;;5055627;28;20540;-84
2024/01/08 10:02:29;;;;;;;7.93;5.50;;;0.20;99.90;;;;;;5072185;28;20029;-84
2024/01/08 10:04:55;;;;;;;7.47;4.68;;;0.30;99.90;;;;;;5051960;28;20484;-84
2024/01/08 10:07:22;;;;;;;7.85;5.78;;;0.30;99.90;;;;;;5071678;28;20082;-83
2024/01/08 10:09:50;;;;;;;6.72;4.88;;;0.30;99.90;;;;;;5055342;28;20404;-84
2024/01/08 10:12:17;;;;;;;7.43;5.60;;;0.30;99.90;;;;;;5055456;28;20325;-83
2024/01/08 10:14:43;;;;;;;6.80;4.63;;;0.30;99.90;;;;;;5052873;28;20028;-83
2024/01/08 10:17:09;;;;;;;7.18;5.30;;;0.30;99.90;;;;;;5053164;28;20108;-82
2024/01/08 10:19:35;;;;;;;7.20;4.68;;;0.40;99.90;;;;;;5039025;28;20020;-84
2024/01/08 10:22:11;;;;;;;6.00;4.90;;;0.40;99.90;;;;;;5038719;28;20045;-84
2024/01/08 10:24:38;;;;;;;9.10;5.38;;;0.50;99.90;;;;;;5055510;28;20032;-84
2024/01/08 10:27:17;;;;;;;6.07;4.70;;;0.50;99.90;;;;;;5071968;28;20025;-83
2024/01/08 10:29:46;;;;;;;7.20;5.05;;;0.50;99.90;;;;;;5052899;28;20030;-84
2024/01/08 10:32:12;;;;;;;6.30;4.60;;;0.50;99.90;;;;;;5035408;28;20029;-84
2024/01/08 10:34:41;;;;;;;7.45;5.20;;;0.60;99.90;;;;;;5052096;28;20043;-84
2024/01/08 10:37:07;;;;;;;7.40;5.38;;;0.60;99.90;;;;;;5072396;28;20100;-84
2024/01/08 10:39:37;;;;;;;7.00;5.18;;;0.50;99.90;;;;;;5072357;28;20037;-84
2024/01/08 10:42:03;;;;;;;6.43;5.13;;;0.60;99.90;;;;;;5073808;28;20020;-85
2024/01/08 10:44:42;;;;;;;8.05;5.18;;;0.60;99.90;;;;;;5067454;28;20088;-81
2024/01/08 10:47:19;;;;;;;6.25;4.72;;;0.60;99.90;;;;;;5094934;28;20009;-84
2024/01/08 10:49:56;;;;;;;6.43;4.85;;;0.60;99.90;;;;;;5084188;28;20025;-84
2024/01/08 10:52:29;;;;;;;7.25;5.22;;;0.60;99.90;;;;;;5083423;28;20074;-84
2024/01/08 10:55:00;;;;;;;8.02;5.15;;;0.70;99.90;;;;;;5053289;28;20481;-84
2024/01/08 10:57:51;;;;;;;5.75;4.28;;;0.80;99.90;;;;;;5035344;28;20021;-84
2024/01/08 11:00:17;;;;;;;5.47;4.50;;;0.90;99.90;;;;;;5068917;28;20017;-84
2024/01/08 11:02:44;;;;;;;7.18;4.72;;;1.00;99.90;;;;;;5075576;28;20299;-84
2024/01/08 11:05:10;;;;;;;6.10;4.72;;;1.00;99.90;;;;;;5075188;28;20024;-83
2024/01/08 11:07:40;;;;;;;7.35;4.63;;;1.00;99.70;;;;;;5076323;28;20099;-84
2024/01/08 11:10:07;;;;;;;6.72;4.60;;;0.90;99.30;;;;;;5076740;28;20036;-83
2024/01/08 11:12:36;;;;;;;7.68;5.45;;;0.90;99.20;;;;;;5058867;28;20028;-84
2024/01/08 11:15:03;;;;;;;7.03;5.00;;;0.90;99.30;;;;;;5075052;28;20028;-84
2024/01/08 11:17:29;;;;;;;7.65;5.25;;;0.80;99.30;;;;;;5074704;28;20029;-84
2024/01/08 11:19:57;;;;;;;9.43;4.50;;;0.80;99.40;;;;;;5063609;28;20059;-84
2024/01/08 11:22:23;;;;;;;5.07;4.32;;;0.80;99.50;;;;;;5038561;28;20479;-85
2024/01/08 11:24:49;;;;;;;6.35;4.55;;;0.80;99.50;;;;;;5067517;28;20021;-83
2024/01/08 11:27:21;;;;;;;6.68;4.38;;;0.80;99.40;;;;;;5058544;28;20033;-84
2024/01/08 11:29:57;;;;;;;5.72;4.40;;;0.80;99.10;;;;;;5075136;28;20032;-83
2024/01/08 11:32:48;;;;;;;7.40;4.30;;;0.80;99.10;;;;;;5074658;28;20013;-83
2024/01/08 11:35:21;;;;;;;4.65;3.88;;;0.80;99.20;;;;;;5077138;28;20055;-85
2024/01/08 11:38:05;;;;;;;5.72;3.85;;;0.90;99.00;;;;;;5073895;28;20024;-84
2024/01/08 11:40:31;;;;;;;7.97;4.45;;;0.90;98.80;;;;;;5057453;28;20373;-84
2024/01/08 11:42:58;;;;;;;7.30;4.40;;;0.90;98.50;;;;;;5058048;28;20085;-84
2024/01/08 11:45:25;;;;;;;6.25;3.75;;;0.90;98.30;;;;;;5057990;28;20048;-83
2024/01/08 11:47:51;;;;;;;5.72;3.83;;;0.80;98.00;;;;;;5061857;28;20040;-84
2024/01/08 11:50:17;;;;;;;6.65;3.53;;;0.90;98.10;;;;;;5042601;28;20029;-84
2024/01/08 11:52:43;;;;;;;5.97;3.97;;;0.90;97.90;;;;;;5077049;28;20469;-84
2024/01/08 11:55:10;;;;;;;5.38;3.42;;;1.00;97.90;;;;;;5060598;28;20035;-82
2024/01/08 11:57:36;;;;;;;7.50;3.67;;;1.00;97.20;;;;;;5075639;28;20032;-83
2024/01/08 12:00:21;;;;;;;5.85;3.63;;;1.00;97.00;;;;;;5087273;28;20043;-83
2024/01/08 12:02:47;;;;;;;4.40;3.17;;;0.90;96.80;;;;;;5091567;28;20033;-82
2024/01/08 12:05:13;;;;;;;6.35;3.63;;;1.00;96.60;;;;;;5069535;28;20046;-82
2024/01/08 12:07:39;;;;;;;6.13;3.17;;;0.90;96.00;;;;;;5038307;28;20025;-83
2024/01/08 12:10:08;;;;;;;4.07;3.10;;;0.90;96.00;;;;;;5068551;28;20123;-82
2024/01/08 12:12:35;;;;;;;5.82;3.30;;;0.90;95.80;;;;;;5057563;28;20345;-83
2024/01/08 12:15:01;;;;;;;4.72;2.88;;;0.80;95.40;;;;;;5050138;28;20082;-83
2024/01/08 12:17:27;;;;;;;5.10;2.70;;;0.80;94.90;;;;;;5042144;28;20021;-82
2024/01/08 12:19:55;;;;;;;3.85;2.67;;;0.90;94.70;;;;;;5055109;28;20469;-82
2024/01/08 12:22:22;;;;;;;4.53;2.85;;;0.90;94.50;;;;;;5075231;28;20075;-82
2024/01/08 12:24:52;;;;;;;4.43;2.95;;;0.90;94.30;;;;;;5074345;28;20025;-83
2024/01/08 12:27:22;;;;;;;4.38;2.85;;;0.90;94.10;;;;;;5074360;28;20093;-81
2024/01/08 12:29:50;;;;;;;3.95;2.63;;;0.90;93.70;;;;;;5059122;28;20032;-82
2024/01/08 12:32:20;;;;;;;4.20;2.72;;;1.00;93.90;;;;;;5054224;28;20025;-82
2024/01/08 12:34:46;;;;;;;4.07;2.60;;;1.00;93.20;;;;;;5066022;28;20468;-82
2024/01/08 12:37:14;;;;;;;4.70;2.70;;;1.00;93.10;;;;;;5072591;28;20142;-83
2024/01/08 12:39:40;;;;;;;4.80;2.42;;;1.00;92.10;;;;;;5074748;28;20029;-83
2024/01/08 12:42:12;;;;;;;6.15;2.95;;;0.90;91.90;;;;;;5053611;28;20036;-82
2024/01/08 12:44:38;;;;;;;5.05;2.83;;;0.90;91.20;;;;;;5053037;28;20390;-85